Time;durP1;ratioP1;P1;durP2;ratioP2;P2;SDS_P1;SDS_P2;PMS_P1;PMS_P2;Temp;Humidity;BMP_temperature;BMP_pressure;BME280_temperature;BME280_humidity;BME280_pressure;Samples;Min_cycle;Max_cycle;Signal;HPM_P1;HPM_P2
2023/06/18 00:01:04;;;;;;;15.75;10.73;;;11.90;32.70;;;;;;5054545;28;20036;-57
2023/06/18 00:03:30;;;;;;;18.95;10.30;;;11.90;41.50;;;;;;5053521;28;20120;-56
2023/06/18 00:05:55;;;;;;;16.30;9.98;;;11.80;30.50;;;;;;5053780;28;20043;-58
2023/06/18 00:08:22;;;;;;;16.08;12.07;;;11.70;42.20;;;;;;5054158;28;20017;-57
2023/06/18 00:10:48;;;;;;;16.23;12.32;;;11.70;48.00;;;;;;5054419;28;20009;-58
2023/06/18 00:13:14;;;;;;;15.75;10.75;;;11.60;54.30;;;;;;5054195;28;20037;-56
2023/06/18 00:15:40;;;;;;;12.95;10.60;;;11.50;56.60;;;;;;5054261;28;20024;-57
2023/06/18 00:18:06;;;;;;;15.60;10.45;;;11.60;47.70;;;;;;5052924;28;20021;-58
2023/06/18 00:20:32;;;;;;;16.50;10.57;;;11.60;47.50;;;;;;5053644;28;20082;-57
2023/06/18 00:22:59;;;;;;;13.15;11.00;;;11.60;52.00;;;;;;5054120;28;20368;-57
2023/06/18 00:25:25;;;;;;;14.18;11.55;;;11.50;47.30;;;;;;5057801;28;20017;-56
2023/06/18 00:27:51;;;;;;;16.08;10.75;;;11.50;46.50;;;;;;5054051;28;20036;-58
2023/06/18 00:30:16;;;;;;;20.83;11.00;;;11.50;44.60;;;;;;5053899;28;20029;-58
2023/06/18 00:32:44;;;;;;;18.13;10.40;;;11.50;37.30;;;;;;5053978;28;20045;-56
2023/06/18 00:35:14;;;;;;;13.77;10.95;;;11.40;42.00;;;;;;5053807;28;20494;-57
2023/06/18 00:37:43;;;;;;;23.20;11.32;;;11.40;35.70;;;;;;5052821;28;20060;-54
2023/06/18 00:40:12;;;;;;;21.50;11.77;;;11.30;42.00;;;;;;5053721;28;20029;-56
2023/06/18 00:42:42;;;;;;;27.73;12.13;;;11.20;45.60;;;;;;5053570;28;20036;-56
2023/06/18 00:45:11;;;;;;;16.88;10.82;;;11.20;45.00;;;;;;5053638;28;20092;-57
2023/06/18 00:47:42;;;;;;;24.95;10.32;;;11.20;46.60;;;;;;5053703;28;20017;-58
2023/06/18 00:50:08;;;;;;;15.52;10.52;;;11.20;47.30;;;;;;5053613;28;20055;-57
2023/06/18 00:52:36;;;;;;;13.85;11.10;;;11.20;49.20;;;;;;5053645;28;20017;-54
2023/06/18 00:55:03;;;;;;;14.88;10.90;;;11.20;51.10;;;;;;5053452;28;20033;-58
2023/06/18 00:57:31;;;;;;;19.10;10.55;;;11.10;51.60;;;;;;5053541;28;20036;-54
2023/06/18 00:59:57;;;;;;;18.27;11.23;;;11.10;54.00;;;;;;5053598;28;20028;-55
2023/06/18 01:02:25;;;;;;;13.30;10.18;;;11.10;51.80;;;;;;5051932;28;20037;-54
2023/06/18 01:04:55;;;;;;;13.32;10.10;;;11.10;55.70;;;;;;5053325;28;20029;-56
2023/06/18 01:07:22;;;;;;;11.95;10.43;;;11.10;44.80;;;;;;5053148;28;20072;-56
2023/06/18 01:09:53;;;;;;;15.20;10.43;;;11.10;51.60;;;;;;5053304;28;20021;-57
2023/06/18 01:12:29;;;;;;;15.18;10.35;;;11.10;46.40;;;;;;5053137;28;20471;-56
2023/06/18 01:14:56;;;;;;;17.55;11.52;;;11.10;48.20;;;;;;5053409;28;20392;-57
2023/06/18 01:17:23;;;;;;;16.63;11.48;;;11.00;45.00;;;;;;5054151;28;20094;-57
2023/06/18 01:19:55;;;;;;;15.55;10.07;;;11.00;52.30;;;;;;5053129;28;20114;-57
2023/06/18 01:22:57;;;;;;;14.30;10.13;;;11.10;53.70;;;;;;5052921;28;20021;-56
2023/06/18 01:25:26;;;;;;;17.02;10.82;;;11.10;52.80;;;;;;5053925;28;20617;-54
2023/06/18 01:27:53;;;;;;;13.93;11.35;;;11.10;53.80;;;;;;5053012;28;20027;-57
2023/06/18 01:30:20;;;;;;;18.42;10.68;;;11.10;59.10;;;;;;5052820;28;20017;-57
2023/06/18 01:32:46;;;;;;;18.95;12.02;;;11.00;60.20;;;;;;5053233;28;20033;-56
2023/06/18 01:35:14;;;;;;;24.00;11.10;;;11.10;69.10;;;;;;5053940;28;20028;-56
2023/06/18 01:37:46;;;;;;;13.55;10.95;;;11.10;65.20;;;;;;5052813;28;20159;-57
2023/06/18 01:40:12;;;;;;;17.10;10.57;;;11.10;62.70;;;;;;5052684;28;20025;-57
2023/06/18 01:42:44;;;;;;;19.35;11.60;;;11.10;63.30;;;;;;5051241;28;20456;-57
2023/06/18 01:45:17;;;;;;;19.48;11.10;;;11.10;62.40;;;;;;5052517;28;20025;-57
2023/06/18 01:47:45;;;;;;;14.18;11.23;;;11.10;65.80;;;;;;5051649;28;20036;-57
2023/06/18 01:50:13;;;;;;;12.20;10.60;;;11.10;65.50;;;;;;5052487;28;20018;-56
2023/06/18 01:52:42;;;;;;;12.23;10.40;;;11.10;60.50;;;;;;5052579;28;20028;-56
2023/06/18 01:55:10;;;;;;;12.30;10.80;;;11.00;62.10;;;;;;5052234;28;20051;-54
2023/06/18 01:57:36;;;;;;;19.25;9.98;;;11.00;61.00;;;;;;5050964;28;20052;-56
2023/06/18 02:00:04;;;;;;;15.60;11.20;;;11.00;62.20;;;;;;5053636;28;20033;-55
2023/06/18 02:02:30;;;;;;;13.57;10.52;;;10.90;61.50;;;;;;5052323;28;20024;-57
2023/06/18 02:04:56;;;;;;;18.25;11.60;;;11.00;64.90;;;;;;5052389;28;20100;-58
2023/06/18 02:07:22;;;;;;;15.02;11.20;;;10.90;64.30;;;;;;5052143;28;20025;-57
2023/06/18 02:09:48;;;;;;;23.15;11.25;;;10.90;67.10;;;;;;5052155;28;20411;-58
2023/06/18 02:12:13;;;;;;;17.00;10.88;;;10.90;68.30;;;;;;5052048;28;20104;-55
2023/06/18 02:14:39;;;;;;;17.85;10.70;;;10.90;66.90;;;;;;5052085;28;20484;-57
2023/06/18 02:17:05;;;;;;;13.60;11.25;;;10.80;66.50;;;;;;5054170;28;20029;-55
2023/06/18 02:19:31;;;;;;;14.75;10.90;;;10.80;64.40;;;;;;5072099;28;20106;-57
2023/06/18 02:21:57;;;;;;;15.90;11.27;;;10.80;64.80;;;;;;5071864;28;20025;-57
2023/06/18 02:24:23;;;;;;;14.15;10.52;;;10.80;64.70;;;;;;5071778;28;20082;-56
2023/06/18 02:26:48;;;;;;;16.25;11.07;;;10.70;64.60;;;;;;5071918;28;20021;-55
2023/06/18 02:29:36;;;;;;;13.73;10.50;;;10.70;62.40;;;;;;5071847;28;20063;-57
2023/06/18 02:32:01;;;;;;;13.38;10.77;;;10.70;62.30;;;;;;5071876;28;20024;-57
2023/06/18 02:34:28;;;;;;;21.23;11.05;;;10.70;60.40;;;;;;5070646;28;20054;-56
2023/06/18 02:36:54;;;;;;;19.25;11.18;;;10.70;60.00;;;;;;5071692;28;20082;-57
2023/06/18 02:39:21;;;;;;;12.77;9.77;;;10.70;61.60;;;;;;5071675;28;20025;-57
2023/06/18 02:41:47;;;;;;;18.75;10.60;;;10.60;59.00;;;;;;5071773;28;20432;-58
2023/06/18 02:44:12;;;;;;;17.88;10.80;;;10.60;57.90;;;;;;5071208;28;20063;-57
2023/06/18 02:46:38;;;;;;;19.25;9.82;;;10.60;62.00;;;;;;5071514;28;20027;-56
2023/06/18 02:49:04;;;;;;;18.40;11.38;;;10.50;57.50;;;;;;5071669;28;20029;-57
2023/06/18 02:51:29;;;;;;;15.73;11.77;;;10.50;56.10;;;;;;5071506;28;20021;-56
2023/06/18 02:53:55;;;;;;;11.02;9.68;;;10.40;57.90;;;;;;5071654;28;20095;-54
2023/06/18 02:56:21;;;;;;;13.27;10.25;;;10.40;54.30;;;;;;5071311;28;20024;-56
2023/06/18 02:58:55;;;;;;;17.60;10.48;;;10.40;58.90;;;;;;5071671;28;20063;-56
2023/06/18 03:01:23;;;;;;;13.25;10.05;;;10.40;62.90;;;;;;5071412;28;20035;-57
2023/06/18 03:03:49;;;;;;;17.90;11.48;;;10.40;63.00;;;;;;5070145;28;20055;-56
2023/06/18 03:06:15;;;;;;;15.75;10.75;;;10.40;60.50;;;;;;5071335;28;20050;-57
2023/06/18 03:08:41;;;;;;;18.23;9.63;;;10.30;62.90;;;;;;5071516;28;20017;-57
2023/06/18 03:11:07;;;;;;;13.57;11.10;;;10.30;60.20;;;;;;5071337;28;20658;-57
2023/06/18 03:13:33;;;;;;;17.30;10.48;;;10.30;60.60;;;;;;5071495;28;20028;-57
2023/06/18 03:15:59;;;;;;;13.48;10.40;;;10.30;58.80;;;;;;5071316;28;20121;-57
2023/06/18 03:18:25;;;;;;;16.60;11.23;;;10.30;56.10;;;;;;5070899;28;20032;-56
2023/06/18 03:20:50;;;;;;;27.60;11.35;;;10.30;59.90;;;;;;5071335;28;20039;-57
2023/06/18 03:23:16;;;;;;;15.40;10.68;;;10.20;58.60;;;;;;5071108;28;20032;-55
2023/06/18 03:25:42;;;;;;;15.27;11.60;;;10.20;64.80;;;;;;5071458;28;20024;-58
2023/06/18 03:28:08;;;;;;;14.68;11.35;;;10.20;65.70;;;;;;5071387;28;20021;-56
2023/06/18 03:30:33;;;;;;;14.30;11.93;;;10.30;66.60;;;;;;5068300;28;20078;-57
2023/06/18 03:33:02;;;;;;;14.77;11.13;;;10.30;67.20;;;;;;5051222;28;20031;-57
2023/06/18 03:35:29;;;;;;;20.40;11.25;;;10.30;64.70;;;;;;5051189;28;20025;-57
2023/06/18 03:37:55;;;;;;;24.45;12.13;;;10.40;70.20;;;;;;5049936;28;20036;-55
2023/06/18 03:40:21;;;;;;;19.48;10.77;;;10.40;66.70;;;;;;5051082;28;20075;-54
2023/06/18 03:42:46;;;;;;;16.75;11.95;;;10.40;66.90;;;;;;5050996;28;20040;-57
2023/06/18 03:45:12;;;;;;;21.27;12.02;;;10.40;69.20;;;;;;5050935;28;20017;-56
2023/06/18 03:47:38;;;;;;;18.60;11.45;;;10.50;76.30;;;;;;5051061;28;20083;-57
2023/06/18 03:50:04;;;;;;;14.75;11.32;;;10.60;78.00;;;;;;5051008;28;20017;-57
2023/06/18 03:52:30;;;;;;;21.85;11.23;;;10.70;78.70;;;;;;5050992;28;20450;-58
2023/06/18 03:54:56;;;;;;;16.77;11.77;;;10.70;77.80;;;;;;5051094;28;20033;-57
2023/06/18 03:57:23;;;;;;;14.13;11.23;;;10.80;78.40;;;;;;5054262;28;20037;-56
2023/06/18 03:59:51;;;;;;;17.08;11.10;;;10.90;77.00;;;;;;5054727;28;20036;-56
2023/06/18 04:02:17;;;;;;;14.50;11.48;;;11.00;78.40;;;;;;5062298;28;20368;-58
2023/06/18 04:04:44;;;;;;;13.40;10.35;;;11.10;73.70;;;;;;5054548;28;20055;-58
2023/06/18 04:07:10;;;;;;;22.42;11.77;;;11.10;67.60;;;;;;5054402;28;20445;-59
2023/06/18 04:09:36;;;;;;;18.92;10.68;;;11.20;71.30;;;;;;5054474;28;20025;-58
2023/06/18 04:12:01;;;;;;;16.02;10.63;;;11.30;68.70;;;;;;5054537;28;20457;-58
2023/06/18 04:14:27;;;;;;;19.85;11.07;;;11.40;68.80;;;;;;5054301;28;20333;-58
2023/06/18 04:16:53;;;;;;;15.30;11.32;;;11.50;67.40;;;;;;5054407;28;20033;-58
2023/06/18 04:19:18;;;;;;;17.10;11.95;;;11.50;73.10;;;;;;5054197;28;20017;-56
2023/06/18 04:21:44;;;;;;;14.23;10.70;;;11.50;73.10;;;;;;5054342;28;20025;-57
2023/06/18 04:24:10;;;;;;;15.57;11.02;;;11.50;76.00;;;;;;5054068;28;20032;-55
2023/06/18 04:26:35;;;;;;;18.42;10.45;;;11.60;74.30;;;;;;5054263;28;20644;-58
2023/06/18 04:29:01;;;;;;;18.63;10.20;;;11.70;73.30;;;;;;5054256;28;20017;-57
2023/06/18 04:31:27;;;;;;;17.13;11.65;;;11.80;73.20;;;;;;5053978;28;20112;-58
2023/06/18 04:33:53;;;;;;;14.02;11.13;;;11.90;71.60;;;;;;5054008;28;20025;-57
2023/06/18 04:36:18;;;;;;;16.25;10.98;;;11.90;73.60;;;;;;5052451;28;20110;-58
2023/06/18 04:38:44;;;;;;;16.63;10.45;;;12.00;74.90;;;;;;5052766;28;20033;-56
2023/06/18 04:41:10;;;;;;;12.88;11.05;;;12.10;75.20;;;;;;5053722;28;20025;-56
2023/06/18 04:43:35;;;;;;;13.77;11.00;;;12.10;75.70;;;;;;5053957;28;20452;-57
2023/06/18 04:46:01;;;;;;;13.07;10.32;;;12.30;73.10;;;;;;5053814;28;20021;-57
2023/06/18 04:48:27;;;;;;;16.52;11.25;;;12.30;73.60;;;;;;5052265;28;20124;-57
2023/06/18 04:50:53;;;;;;;16.15;11.40;;;12.40;72.80;;;;;;5053720;28;20021;-56
2023/06/18 04:53:18;;;;;;;14.20;11.88;;;12.60;72.70;;;;;;5053425;28;20116;-57
2023/06/18 04:55:44;;;;;;;17.55;11.02;;;12.70;66.80;;;;;;5053696;28;20028;-56
2023/06/18 04:58:10;;;;;;;14.57;11.50;;;12.90;64.90;;;;;;5053401;28;20116;-57
2023/06/18 05:00:36;;;;;;;13.52;11.45;;;13.00;59.10;;;;;;5053528;28;20577;-53
2023/06/18 05:03:03;;;;;;;14.50;11.40;;;13.20;60.00;;;;;;5053466;28;20033;-55
2023/06/18 05:05:29;;;;;;;13.70;10.75;;;13.40;57.40;;;;;;5053737;28;20472;-57
2023/06/18 05:07:55;;;;;;;14.75;10.80;;;13.50;44.90;;;;;;5053303;28;20025;-56
2023/06/18 05:10:21;;;;;;;15.15;10.43;;;13.60;43.10;;;;;;5053263;28;20021;-57
2023/06/18 05:12:47;;;;;;;10.13;9.10;;;13.80;37.60;;;;;;5053474;28;20532;-58
2023/06/18 05:15:13;;;;;;;13.18;9.70;;;14.00;17.70;;;;;;5053098;28;20029;-56
2023/06/18 05:17:39;;;;;;;12.10;9.77;;;14.10;1.00;;;;;;5053348;28;20476;-57
2023/06/18 05:20:05;;;;;;;13.57;9.50;;;14.20;1.00;;;;;;5052863;28;20036;-57
2023/06/18 05:22:33;;;;;;;12.18;10.68;;;14.30;1.00;;;;;;5053107;28;20027;-56
2023/06/18 05:24:59;;;;;;;10.63;9.52;;;14.40;1.00;;;;;;5051161;28;20021;-56
2023/06/18 05:27:28;;;;;;;14.52;11.15;;;14.60;1.00;;;;;;5052210;28;20025;-56
2023/06/18 05:29:54;;;;;;;12.05;10.48;;;14.50;1.00;;;;;;5052200;28;20029;-57
2023/06/18 05:32:20;;;;;;;16.25;10.15;;;14.70;1.00;;;;;;5066888;28;20032;-58
2023/06/18 05:34:46;;;;;;;15.65;10.32;;;14.80;1.00;;;;;;5071842;28;20115;-57
2023/06/18 05:37:11;;;;;;;10.65;9.55;;;14.80;1.00;;;;;;5070270;28;20033;-57
2023/06/18 05:39:37;;;;;;;14.55;10.40;;;15.00;1.00;;;;;;5072078;28;20059;-55
2023/06/18 05:42:03;;;;;;;13.90;10.68;;;15.10;1.00;;;;;;5057349;28;20029;-58
2023/06/18 05:44:29;;;;;;;12.18;9.88;;;15.20;1.00;;;;;;5064997;28;20091;-56
2023/06/18 05:46:55;;;;;;;16.35;10.48;;;15.30;1.00;;;;;;5052532;28;20021;-57
2023/06/18 05:49:21;;;;;;;10.80;9.68;;;15.40;1.00;;;;;;5052908;28;20020;-57
2023/06/18 05:51:47;;;;;;;14.57;9.68;;;15.50;1.00;;;;;;5072461;28;20379;-57
2023/06/18 05:54:13;;;;;;;17.38;9.80;;;15.60;1.00;;;;;;5072539;28;20039;-57
2023/06/18 05:56:38;;;;;;;20.27;10.57;;;15.80;1.00;;;;;;5052705;28;20507;-56
2023/06/18 05:59:04;;;;;;;11.95;10.18;;;15.90;1.00;;;;;;5052230;28;20039;-57
2023/06/18 06:01:33;;;;;;;10.75;9.65;;;16.00;1.00;;;;;;5052438;28;20037;-55
2023/06/18 06:04:01;;;;;;;12.63;9.98;;;16.20;1.00;;;;;;5052000;28;20048;-58
2023/06/18 06:06:27;;;;;;;13.10;10.50;;;16.40;1.00;;;;;;5061288;28;20105;-56
2023/06/18 06:08:52;;;;;;;13.30;10.10;;;16.50;1.00;;;;;;5072174;28;20028;-58
2023/06/18 06:11:19;;;;;;;11.63;9.82;;;16.70;1.00;;;;;;5071580;28;20028;-58
2023/06/18 06:13:45;;;;;;;12.07;10.02;;;16.80;99.90;;;;;;5072125;28;20021;-58
2023/06/18 06:16:11;;;;;;;12.23;9.75;;;16.90;99.90;;;;;;5070605;28;20116;-57
2023/06/18 06:18:37;;;;;;;12.05;9.77;;;17.10;99.90;;;;;;5071622;28;20438;-57
2023/06/18 06:21:03;;;;;;;15.20;9.75;;;17.20;99.90;;;;;;5072101;28;20107;-57
2023/06/18 06:23:30;;;;;;;12.75;9.32;;;17.30;99.90;;;;;;5071705;28;20055;-56
2023/06/18 06:25:56;;;;;;;13.00;9.40;;;17.40;99.90;;;;;;5074482;28;20020;-56
2023/06/18 06:28:22;;;;;;;10.95;8.05;;;17.60;99.90;;;;;;5081496;28;20114;-58
2023/06/18 06:30:48;;;;;;;12.93;9.50;;;17.70;99.90;;;;;;5066651;28;20060;-57
2023/06/18 06:33:13;;;;;;;11.65;9.80;;;17.80;99.90;;;;;;5051595;28;20033;-58
2023/06/18 06:35:39;;;;;;;19.33;10.18;;;17.90;99.90;;;;;;5052913;28;20025;-58
2023/06/18 06:38:04;;;;;;;16.90;9.65;;;18.00;99.90;;;;;;5051726;28;20025;-58
2023/06/18 06:40:30;;;;;;;13.45;9.85;;;18.20;99.90;;;;;;5051586;28;20025;-57
2023/06/18 06:42:56;;;;;;;9.73;8.70;;;18.30;44.20;;;;;;5051399;28;20039;-56
2023/06/18 06:45:22;;;;;;;11.40;9.13;;;18.40;99.90;;;;;;5051841;28;20886;-58
2023/06/18 06:47:48;;;;;;;14.70;10.68;;;18.50;99.90;;;;;;5050324;28;20463;-58
2023/06/18 06:50:14;;;;;;;9.77;8.77;;;18.60;1.00;;;;;;5051547;28;20053;-58
2023/06/18 06:52:40;;;;;;;13.27;10.05;;;18.70;43.90;;;;;;5051653;28;20029;-58
2023/06/18 06:55:06;;;;;;;14.50;9.77;;;18.80;1.00;;;;;;5051219;28;20032;-56
2023/06/18 06:57:31;;;;;;;11.05;9.13;;;19.00;1.00;;;;;;5051418;28;20120;-57
2023/06/18 06:59:57;;;;;;;10.48;9.18;;;19.10;11.30;;;;;;5058899;28;20600;-58
2023/06/18 07:02:22;;;;;;;9.75;8.73;;;19.20;1.00;;;;;;5070183;28;20085;-57
2023/06/18 07:04:48;;;;;;;11.60;9.60;;;19.40;1.00;;;;;;5070124;28;20021;-57
2023/06/18 07:07:14;;;;;;;10.95;9.85;;;19.50;99.90;;;;;;5070138;28;20043;-55
2023/06/18 07:09:40;;;;;;;12.90;9.95;;;19.60;1.00;;;;;;5070474;28;20021;-58
2023/06/18 07:12:07;;;;;;;13.30;9.43;;;19.70;1.00;;;;;;5068608;28;20020;-57
2023/06/18 07:14:33;;;;;;;9.10;8.20;;;19.80;1.00;;;;;;5067072;28;20009;-56
2023/06/18 07:16:59;;;;;;;14.38;9.63;;;20.00;1.00;;;;;;5056555;28;20024;-57
2023/06/18 07:19:24;;;;;;;11.25;8.88;;;20.00;99.90;;;;;;5070397;28;20028;-57
2023/06/18 07:21:50;;;;;;;10.45;9.00;;;20.10;1.00;;;;;;5069812;28;20108;-56
2023/06/18 07:24:16;;;;;;;11.52;9.13;;;20.20;99.90;;;;;;5069805;28;20107;-56
2023/06/18 07:26:42;;;;;;;10.85;8.25;;;20.50;99.90;;;;;;5069983;28;20025;-57
2023/06/18 07:29:08;;;;;;;12.45;9.18;;;20.70;99.90;;;;;;5069899;28;20025;-57
2023/06/18 07:31:34;;;;;;;11.40;7.88;;;20.80;1.00;;;;;;5073426;28;20028;-57
2023/06/18 07:34:00;;;;;;;12.52;9.23;;;21.00;99.90;;;;;;5073659;28;20115;-56
2023/06/18 07:36:25;;;;;;;12.13;9.45;;;21.20;1.00;;;;;;5074049;28;20103;-57
2023/06/18 07:38:51;;;;;;;13.95;8.82;;;21.30;1.00;;;;;;5073659;28;20048;-56
2023/06/18 07:41:17;;;;;;;20.15;8.13;;;21.40;99.90;;;;;;5073632;28;20047;-54
2023/06/18 07:43:43;;;;;;;10.38;7.50;;;21.50;99.90;;;;;;5073413;28;20456;-57
2023/06/18 07:46:09;;;;;;;7.78;6.95;;;21.60;99.90;;;;;;5073562;28;20029;-55
2023/06/18 07:48:34;;;;;;;8.73;7.82;;;21.70;1.00;;;;;;5073524;28;20011;-55
2023/06/18 07:51:00;;;;;;;17.45;7.45;;;21.70;1.00;;;;;;5074026;28;20021;-55
2023/06/18 07:53:26;;;;;;;10.23;8.20;;;21.80;99.90;;;;;;5074406;28;20079;-57
2023/06/18 07:55:51;;;;;;;8.95;7.97;;;22.00;1.00;;;;;;5074802;28;20032;-57
2023/06/18 07:58:17;;;;;;;9.50;8.10;;;22.20;99.90;;;;;;5074203;28;20049;-58
2023/06/18 08:00:43;;;;;;;10.32;7.65;;;22.50;99.90;;;;;;5091136;28;20028;-56
2023/06/18 08:03:08;;;;;;;15.48;8.63;;;22.60;99.90;;;;;;5082961;28;20039;-57
2023/06/18 08:05:34;;;;;;;17.60;8.23;;;22.70;99.90;;;;;;5089919;28;20021;-56
2023/06/18 08:07:59;;;;;;;9.38;7.88;;;22.70;99.90;;;;;;5074348;28;20391;-55
2023/06/18 08:10:25;;;;;;;9.88;7.35;;;22.90;99.90;;;;;;5074193;28;20029;-57
2023/06/18 08:12:51;;;;;;;11.68;7.95;;;23.10;99.90;;;;;;5074257;28;20400;-55
2023/06/18 08:15:16;;;;;;;10.48;7.72;;;23.10;99.90;;;;;;5070431;28;20047;-57
2023/06/18 08:17:42;;;;;;;11.70;7.07;;;23.30;87.70;;;;;;5074291;28;20021;-55
2023/06/18 08:20:08;;;;;;;8.90;6.72;;;23.40;82.50;;;;;;5074049;28;20024;-57
2023/06/18 08:22:34;;;;;;;12.27;6.53;;;23.20;1.00;;;;;;5073940;28;20036;-57
2023/06/18 08:24:59;;;;;;;9.73;7.13;;;23.30;1.00;;;;;;5074112;28;20029;-54
2023/06/18 08:27:25;;;;;;;12.93;7.10;;;23.50;1.00;;;;;;5074080;28;20032;-56
2023/06/18 08:29:50;;;;;;;10.55;6.22;;;23.80;1.00;;;;;;5073935;28;20051;-55
2023/06/18 08:32:16;;;;;;;8.25;6.22;;;24.10;1.00;;;;;;5073993;28;20032;-55
2023/06/18 08:34:42;;;;;;;11.45;6.40;;;24.30;1.00;;;;;;5073928;28;20032;-54
2023/06/18 08:37:10;;;;;;;8.80;6.35;;;24.50;1.00;;;;;;5073811;28;20017;-57
2023/06/18 08:39:36;;;;;;;14.43;7.28;;;24.60;1.00;;;;;;5073666;28;20498;-56
2023/06/18 08:42:02;;;;;;;12.98;5.82;;;24.80;1.00;;;;;;5073474;28;20027;-56
2023/06/18 08:44:30;;;;;;;10.32;6.43;;;24.90;1.00;;;;;;5073402;28;20025;-57
2023/06/18 08:47:00;;;;;;;8.77;6.03;;;25.00;1.00;;;;;;5073733;28;20028;-58
2023/06/18 08:49:32;;;;;;;9.60;6.20;;;24.90;1.00;;;;;;5073354;28;20111;-55
2023/06/18 08:52:00;;;;;;;9.27;5.90;;;24.90;1.00;;;;;;5073736;28;20159;-57
2023/06/18 08:54:33;;;;;;;7.95;6.45;;;25.00;1.00;;;;;;5073184;28;20036;-57
2023/06/18 08:57:26;;;;;;;6.43;5.18;;;24.80;1.00;;;;;;5073382;28;20044;-57
2023/06/18 08:59:54;;;;;;;12.30;5.53;;;25.10;99.90;;;;;;5072796;28;20055;-57
2023/06/18 09:02:21;;;;;;;9.63;6.20;;;25.40;1.00;;;;;;5073263;28;20038;-55
2023/06/18 09:04:47;;;;;;;17.30;6.75;;;25.10;99.90;;;;;;5073280;28;20574;-57
2023/06/18 09:07:13;;;;;;;11.35;6.50;;;25.20;99.90;;;;;;5073099;28;20039;-56
2023/06/18 09:09:38;;;;;;;9.23;5.95;;;25.60;99.90;;;;;;5073275;28;20025;-55
2023/06/18 09:12:05;;;;;;;8.13;5.43;;;25.80;99.90;;;;;;5072435;28;20055;-56
2023/06/18 09:14:30;;;;;;;8.43;5.47;;;26.00;99.90;;;;;;5073138;28;20029;-57
2023/06/18 09:16:57;;;;;;;8.13;6.80;;;26.00;99.90;;;;;;5073322;28;20024;-56
2023/06/18 09:19:24;;;;;;;13.75;5.85;;;25.90;99.90;;;;;;5072924;28;20031;-57
2023/06/18 09:21:50;;;;;;;7.13;6.43;;;26.20;99.90;;;;;;5071700;28;20025;-57
2023/06/18 09:24:22;;;;;;;10.80;7.10;;;26.10;99.90;;;;;;5072871;28;20017;-56
2023/06/18 09:26:59;;;;;;;8.52;6.93;;;25.90;99.90;;;;;;5071488;28;20451;-57
2023/06/18 09:29:29;;;;;;;8.60;6.85;;;26.20;99.90;;;;;;5072727;28;20063;-57
2023/06/18 09:31:55;;;;;;;10.07;5.93;;;26.40;99.90;;;;;;5072737;28;20040;-58
2023/06/18 09:34:21;;;;;;;8.25;5.88;;;26.80;99.90;;;;;;5072669;28;20515;-57
2023/06/18 09:36:48;;;;;;;8.93;6.25;;;26.80;99.90;;;;;;5072663;28;20032;-58
2023/06/18 09:39:15;;;;;;;10.15;5.75;;;26.60;99.90;;;;;;5072719;28;20490;-58
2023/06/18 09:41:41;;;;;;;8.05;6.28;;;26.70;99.90;;;;;;5072397;28;20028;-58
2023/06/18 09:44:07;;;;;;;12.60;5.50;;;27.00;99.90;;;;;;5091548;28;20028;-57
2023/06/18 09:46:33;;;;;;;7.13;5.93;;;27.00;99.90;;;;;;5092561;28;20364;-57
2023/06/18 09:49:00;;;;;;;9.82;8.23;;;27.40;99.90;;;;;;5092827;28;20035;-55
2023/06/18 09:51:26;;;;;;;9.18;6.18;;;27.40;99.90;;;;;;5073646;28;20070;-57
2023/06/18 09:53:57;;;;;;;9.18;6.40;;;27.50;99.90;;;;;;5071765;28;20081;-56
2023/06/18 09:56:23;;;;;;;9.25;6.28;;;27.50;99.90;;;;;;5071827;28;20041;-57
2023/06/18 09:58:50;;;;;;;8.93;6.25;;;27.10;99.90;;;;;;5072620;28;20017;-58
2023/06/18 10:01:17;;;;;;;9.95;6.35;;;27.50;99.90;;;;;;5068075;28;20048;-58
2023/06/18 10:03:44;;;;;;;7.75;6.47;;;27.80;99.90;;;;;;5072126;28;20060;-57
2023/06/18 10:06:16;;;;;;;12.48;6.18;;;28.20;99.90;;;;;;5071876;28;20040;-58
2023/06/18 10:08:47;;;;;;;15.80;6.75;;;28.00;99.90;;;;;;5072256;28;20023;-59
2023/06/18 10:11:15;;;;;;;9.07;5.85;;;28.00;99.90;;;;;;5071647;28;20534;-59
2023/06/18 10:13:52;;;;;;;7.32;6.22;;;28.20;99.90;;;;;;5071751;28;20025;-59
2023/06/18 10:16:20;;;;;;;8.63;6.13;;;28.00;99.90;;;;;;5039203;28;20041;-59
2023/06/18 10:19:11;;;;;;;6.80;5.80;;;28.40;99.90;;;;;;5039206;28;20504;-59
2023/06/18 10:21:41;;;;;;;8.30;6.65;;;28.30;99.90;;;;;;5057168;28;20035;-58
2023/06/18 10:24:15;;;;;;;9.10;6.07;;;28.70;99.90;;;;;;5056660;28;20056;-58
2023/06/18 10:26:42;;;;;;;9.38;6.30;;;28.40;99.90;;;;;;5060352;28;20024;-59
2023/06/18 10:29:10;;;;;;;8.88;5.95;;;28.50;99.90;;;;;;5059854;28;20053;-59
2023/06/18 10:31:37;;;;;;;7.80;5.57;;;28.90;99.90;;;;;;5059324;28;20120;-59
2023/06/18 10:34:03;;;;;;;9.07;6.72;;;29.30;99.90;;;;;;5059473;28;20066;-58
2023/06/18 10:36:29;;;;;;;7.88;5.82;;;29.30;99.90;;;;;;5060037;28;20032;-59
2023/06/18 10:38:57;;;;;;;6.30;5.00;;;29.10;99.90;;;;;;5054078;28;20041;-59
2023/06/18 10:41:23;;;;;;;7.88;5.70;;;29.20;99.90;;;;;;5042484;28;20043;-58
2023/06/18 10:43:54;;;;;;;8.88;6.03;;;28.90;99.90;;;;;;5040517;28;20045;-60
2023/06/18 10:46:24;;;;;;;7.28;5.25;;;28.70;99.90;;;;;;5058943;28;20020;-57
2023/06/18 10:49:13;;;;;;;8.63;6.28;;;28.60;99.90;;;;;;5059708;28;20048;-59
2023/06/18 10:51:39;;;;;;;16.83;6.43;;;28.80;99.90;;;;;;5046814;28;20495;-57
2023/06/18 10:54:34;;;;;;;7.97;5.60;;;28.90;99.90;;;;;;5046811;28;20036;-60
2023/06/18 10:57:01;;;;;;;11.32;6.18;;;29.50;99.90;;;;;;5057289;28;20127;-60
2023/06/18 10:59:45;;;;;;;7.10;6.40;;;29.50;99.90;;;;;;5051805;28;20132;-59
2023/06/18 11:02:12;;;;;;;9.77;5.90;;;29.20;99.90;;;;;;5036817;28;20033;-59
2023/06/18 11:04:38;;;;;;;11.80;6.72;;;29.70;99.90;;;;;;5039557;28;20103;-60
2023/06/18 11:07:23;;;;;;;12.02;5.50;;;29.90;99.90;;;;;;5043500;28;20020;-59
2023/06/18 11:09:58;;;;;;;11.35;6.15;;;30.30;99.90;;;;;;5045107;28;20029;-59
2023/06/18 11:12:25;;;;;;;8.20;5.78;;;30.20;99.90;;;;;;5045135;28;20036;-59
2023/06/18 11:15:18;;;;;;;13.02;6.93;;;30.70;99.90;;;;;;5045708;28;20021;-59
2023/06/18 11:17:49;;;;;;;5.90;5.03;;;30.80;99.90;;;;;;5045991;28;20033;-59
2023/06/18 11:20:17;;;;;;;7.50;6.45;;;31.10;99.90;;;;;;5046931;28;20530;-59
2023/06/18 11:22:43;;;;;;;7.32;6.38;;;31.20;99.90;;;;;;5046249;28;20094;-59
2023/06/18 11:25:11;;;;;;;15.18;5.75;;;31.20;99.90;;;;;;5046502;28;20060;-59
2023/06/18 11:27:42;;;;;;;13.15;5.75;;;31.00;99.90;;;;;;5048135;28;20013;-59
2023/06/18 11:30:09;;;;;;;7.82;6.20;;;31.10;99.90;;;;;;5046870;28;20966;-60
2023/06/18 11:32:36;;;;;;;7.82;5.63;;;30.10;99.90;;;;;;5047708;28;20021;-59
2023/06/18 11:35:04;;;;;;;7.30;5.50;;;30.50;99.90;;;;;;5046126;28;20044;-59
2023/06/18 11:37:30;;;;;;;7.00;5.30;;;30.40;99.90;;;;;;5046296;28;20067;-59
2023/06/18 11:39:56;;;;;;;5.88;5.32;;;30.00;99.90;;;;;;5046740;28;20065;-59
2023/06/18 11:42:25;;;;;;;7.50;6.35;;;30.70;99.90;;;;;;5046255;28;20032;-59
2023/06/18 11:44:57;;;;;;;8.02;6.03;;;30.80;99.90;;;;;;5046549;28;20021;-59
2023/06/18 11:47:23;;;;;;;6.43;5.70;;;31.00;99.90;;;;;;5046332;28;20098;-59
2023/06/18 11:49:51;;;;;;;10.43;5.85;;;31.00;99.90;;;;;;5046662;28;20029;-59
2023/06/18 11:52:24;;;;;;;8.65;5.80;;;30.80;99.90;;;;;;5045974;28;20036;-59
2023/06/18 11:54:51;;;;;;;9.73;5.70;;;30.90;99.90;;;;;;5045385;28;20373;-59
2023/06/18 11:57:19;;;;;;;7.65;6.20;;;31.00;99.90;;;;;;5046153;28;20045;-59
2023/06/18 11:59:46;;;;;;;7.05;5.75;;;31.20;99.90;;;;;;5047117;28;20044;-59
2023/06/18 12:02:25;;;;;;;9.38;5.32;;;31.70;99.90;;;;;;5046721;28;20094;-59
2023/06/18 12:04:51;;;;;;;11.95;6.25;;;32.30;99.90;;;;;;5046879;28;20029;-59
2023/06/18 12:07:21;;;;;;;9.32;5.65;;;32.20;99.90;;;;;;5045564;28;20033;-59
2023/06/18 12:09:48;;;;;;;7.45;6.18;;;31.90;99.90;;;;;;5046532;28;20611;-59
2023/06/18 12:12:37;;;;;;;13.98;5.72;;;31.50;99.90;;;;;;5046251;28;20048;-59
2023/06/18 12:15:22;;;;;;;6.45;5.75;;;31.70;99.90;;;;;;5046664;28;20025;-60
2023/06/18 12:17:57;;;;;;;8.48;6.03;;;32.10;99.90;;;;;;5043722;28;20047;-59
2023/06/18 12:20:30;;;;;;;20.13;6.53;;;32.20;99.90;;;;;;5043481;28;20043;-59
2023/06/18 12:22:56;;;;;;;8.68;5.40;;;32.80;99.90;;;;;;5043163;28;20036;-59
2023/06/18 12:25:26;;;;;;;5.80;5.18;;;32.90;99.90;;;;;;5043257;28;20094;-59
2023/06/18 12:27:53;;;;;;;7.60;5.45;;;33.20;99.90;;;;;;5043061;28;20025;-59
2023/06/18 12:30:26;;;;;;;8.52;5.88;;;33.00;99.90;;;;;;5043151;28;20427;-60
2023/06/18 12:33:08;;;;;;;5.95;5.07;;;34.00;99.90;;;;;;5042889;28;20099;-59
2023/06/18 12:35:35;;;;;;;15.77;5.63;;;34.80;99.90;;;;;;5043004;28;20111;-60
2023/06/18 12:38:08;;;;;;;8.32;5.93;;;34.90;99.90;;;;;;5043276;28;20036;-59
2023/06/18 12:40:46;;;;;;;8.55;4.97;;;35.40;99.90;;;;;;5043241;28;20043;-60